sensor_id;sensor_type;location;lat;lon;timestamp;temperature;humidity
35491;DHT22;21605;52.068;20.806;2023-12-20T00:00:36;7.30;99.90
35491;DHT22;21605;52.068;20.806;2023-12-20T00:03:05;7.20;99.90
35491;DHT22;21605;52.068;20.806;2023-12-20T00:05:31;7.10;99.90
35491;DHT22;21605;52.068;20.806;2023-12-20T00:08:09;7.10;99.90
35491;DHT22;21605;52.068;20.806;2023-12-20T00:10:44;7.30;99.90
35491;DHT22;21605;52.068;20.806;2023-12-20T00:13:10;7.10;99.90
35491;DHT22;21605;52.068;20.806;2023-12-20T00:15:42;7.10;99.90
35491;DHT22;21605;52.068;20.806;2023-12-20T00:18:07;7.10;99.90
35491;DHT22;21605;52.068;20.806;2023-12-20T00:20:42;7.10;99.90
35491;DHT22;21605;52.068;20.806;2023-12-20T00:23:08;7.10;99.90
35491;DHT22;21605;52.068;20.806;2023-12-20T00:25:37;7.00;99.90
35491;DHT22;21605;52.068;20.806;2023-12-20T00:28:03;7.00;99.90
35491;DHT22;21605;52.068;20.806;2023-12-20T00:30:28;7.10;99.90
35491;DHT22;21605;52.068;20.806;2023-12-20T00:32:57;7.10;99.90
35491;DHT22;21605;52.068;20.806;2023-12-20T00:35:23;7.10;99.90
35491;DHT22;21605;52.068;20.806;2023-12-20T00:37:49;7.00;99.90
35491;DHT22;21605;52.068;20.806;2023-12-20T00:40:15;7.20;99.90
35491;DHT22;21605;52.068;20.806;2023-12-20T00:42:46;6.90;99.90
35491;DHT22;21605;52.068;20.806;2023-12-20T00:45:12;7.10;99.90
35491;DHT22;21605;52.068;20.806;2023-12-20T00:47:43;7.10;99.90
35491;DHT22;21605;52.068;20.806;2023-12-20T00:50:09;7.00;99.90
35491;DHT22;21605;52.068;20.806;2023-12-20T00:52:44;7.00;99.90
35491;DHT22;21605;52.068;20.806;2023-12-20T00:55:09;7.10;99.90
35491;DHT22;21605;52.068;20.806;2023-12-20T00:57:50;7.10;99.90
35491;DHT22;21605;52.068;20.806;2023-12-20T01:00:16;7.10;99.90
35491;DHT22;21605;52.068;20.806;2023-12-20T01:02:44;7.00;99.90
35491;DHT22;21605;52.068;20.806;2023-12-20T01:05:12;7.10;99.90
35491;DHT22;21605;52.068;20.806;2023-12-20T01:07:46;7.00;99.90
35491;DHT22;21605;52.068;20.806;2023-12-20T01:10:12;7.00;99.90
35491;DHT22;21605;52.068;20.806;2023-12-20T01:12:47;7.00;99.90
35491;DHT22;21605;52.068;20.806;2023-12-20T01:15:12;7.10;99.90
35491;DHT22;21605;52.068;20.806;2023-12-20T01:17:39;7.00;99.90
35491;DHT22;21605;52.068;20.806;2023-12-20T01:20:05;7.20;99.90
35491;DHT22;21605;52.068;20.806;2023-12-20T01:22:31;7.10;99.90
35491;DHT22;21605;52.068;20.806;2023-12-20T01:24:57;7.20;99.90
35491;DHT22;21605;52.068;20.806;2023-12-20T01:27:22;7.20;99.90
35491;DHT22;21605;52.068;20.806;2023-12-20T01:30:00;7.10;99.90
35491;DHT22;21605;52.068;20.806;2023-12-20T01:32:25;7.10;99.90
35491;DHT22;21605;52.068;20.806;2023-12-20T01:34:51;7.20;99.90
35491;DHT22;21605;52.068;20.806;2023-12-20T01:37:16;7.00;99.90
35491;DHT22;21605;52.068;20.806;2023-12-20T01:39:47;6.90;99.90
35491;DHT22;21605;52.068;20.806;2023-12-20T01:42:13;7.00;99.90
35491;DHT22;21605;52.068;20.806;2023-12-20T01:44:48;7.00;99.90
35491;DHT22;21605;52.068;20.806;2023-12-20T01:47:13;7.00;99.90
35491;DHT22;21605;52.068;20.806;2023-12-20T01:49:49;7.00;99.90
35491;DHT22;21605;52.068;20.806;2023-12-20T01:52:14;6.90;99.90
35491;DHT22;21605;52.068;20.806;2023-12-20T01:54:49;7.00;99.90
35491;DHT22;21605;52.068;20.806;2023-12-20T01:57:15;7.00;99.90
35491;DHT22;21605;52.068;20.806;2023-12-20T01:59:50;6.90;99.90
35491;DHT22;21605;52.068;20.806;2023-12-20T02:02:15;6.90;99.90
35491;DHT22;21605;52.068;20.806;2023-12-20T02:04:51;6.90;99.90
35491;DHT22;21605;52.068;20.806;2023-12-20T02:07:18;6.90;99.90
35491;DHT22;21605;52.068;20.806;2023-12-20T02:09:44;6.80;99.90
35491;DHT22;21605;52.068;20.806;2023-12-20T02:12:10;6.90;99.90
35491;DHT22;21605;52.068;20.806;2023-12-20T02:14:35;6.90;99.90
35491;DHT22;21605;52.068;20.806;2023-12-20T02:17:01;7.00;99.90
35491;DHT22;21605;52.068;20.806;2023-12-20T02:19:26;7.00;99.90
35491;DHT22;21605;52.068;20.806;2023-12-20T02:22:06;7.00;99.90
35491;DHT22;21605;52.068;20.806;2023-12-20T02:24:31;7.10;99.90
35491;DHT22;21605;52.068;20.806;2023-12-20T02:26:57;7.00;99.90
35491;DHT22;21605;52.068;20.806;2023-12-20T02:29:23;7.00;99.90
35491;DHT22;21605;52.068;20.806;2023-12-20T02:31:58;6.90;99.90
35491;DHT22;21605;52.068;20.806;2023-12-20T02:34:23;7.10;99.90
35491;DHT22;21605;52.068;20.806;2023-12-20T02:36:49;7.00;99.90
35491;DHT22;21605;52.068;20.806;2023-12-20T02:39:15;6.90;99.90
35491;DHT22;21605;52.068;20.806;2023-12-20T02:41:41;6.90;99.90
35491;DHT22;21605;52.068;20.806;2023-12-20T02:44:06;6.90;99.90
35491;DHT22;21605;52.068;20.806;2023-12-20T02:46:32;6.90;99.90
35491;DHT22;21605;52.068;20.806;2023-12-20T02:48:57;6.90;99.90
35491;DHT22;21605;52.068;20.806;2023-12-20T02:51:23;6.80;99.90
35491;DHT22;21605;52.068;20.806;2023-12-20T02:53:48;6.80;99.90
35491;DHT22;21605;52.068;20.806;2023-12-20T02:56:14;6.90;99.90
35491;DHT22;21605;52.068;20.806;2023-12-20T02:58:40;6.80;99.90
35491;DHT22;21605;52.068;20.806;2023-12-20T03:01:05;6.90;99.90
35491;DHT22;21605;52.068;20.806;2023-12-20T03:03:31;6.90;99.90
35491;DHT22;21605;52.068;20.806;2023-12-20T03:05:57;6.90;99.90
35491;DHT22;21605;52.068;20.806;2023-12-20T03:08:23;6.90;99.90
35491;DHT22;21605;52.068;20.806;2023-12-20T03:10:53;6.90;99.90
35491;DHT22;21605;52.068;20.806;2023-12-20T03:13:19;6.80;99.90
35491;DHT22;21605;52.068;20.806;2023-12-20T03:15:54;6.80;99.90
35491;DHT22;21605;52.068;20.806;2023-12-20T03:18:20;6.80;99.90
35491;DHT22;21605;52.068;20.806;2023-12-20T03:20:45;6.90;99.90
35491;DHT22;21605;52.068;20.806;2023-12-20T03:23:12;6.80;99.90
35491;DHT22;21605;52.068;20.806;2023-12-20T03:25:38;6.80;99.90
35491;DHT22;21605;52.068;20.806;2023-12-20T03:28:04;6.90;99.90
35491;DHT22;21605;52.068;20.806;2023-12-20T03:30:30;6.80;99.90
35491;DHT22;21605;52.068;20.806;2023-12-20T03:33:00;6.80;99.90
35491;DHT22;21605;52.068;20.806;2023-12-20T03:35:26;6.80;99.90
35491;DHT22;21605;52.068;20.806;2023-12-20T03:37:57;6.80;99.90
35491;DHT22;21605;52.068;20.806;2023-12-20T03:40:25;6.70;99.90
35491;DHT22;21605;52.068;20.806;2023-12-20T03:42:53;6.80;99.90
35491;DHT22;21605;52.068;20.806;2023-12-20T03:45:19;6.90;99.90
35491;DHT22;21605;52.068;20.806;2023-12-20T03:47:54;6.80;99.90
35491;DHT22;21605;52.068;20.806;2023-12-20T03:50:24;6.80;99.90
35491;DHT22;21605;52.068;20.806;2023-12-20T03:52:52;6.80;99.90
35491;DHT22;21605;52.068;20.806;2023-12-20T03:55:18;6.80;99.90
35491;DHT22;21605;52.068;20.806;2023-12-20T03:57:49;6.80;99.90
35491;DHT22;21605;52.068;20.806;2023-12-20T04:00:14;6.80;99.90
35491;DHT22;21605;52.068;20.806;2023-12-20T04:02:41;6.80;99.90
35491;DHT22;21605;52.068;20.806;2023-12-20T04:05:08;6.80;99.90
35491;DHT22;21605;52.068;20.806;2023-12-20T04:07:34;6.80;99.90
35491;DHT22;21605;52.068;20.806;2023-12-20T04:10:00;6.80;99.90
35491;DHT22;21605;52.068;20.806;2023-12-20T04:12:27;6.80;99.90
35491;DHT22;21605;52.068;20.806;2023-12-20T04:14:54;6.80;99.90
35491;DHT22;21605;52.068;20.806;2023-12-20T04:17:20;6.90;99.90
35491;DHT22;21605;52.068;20.806;2023-12-20T04:19:59;6.80;99.90
35491;DHT22;21605;52.068;20.806;2023-12-20T04:22:25;6.80;99.90
35491;DHT22;21605;52.068;20.806;2023-12-20T04:24:57;7.00;99.90
35491;DHT22;21605;52.068;20.806;2023-12-20T04:27:22;6.80;99.90
35491;DHT22;21605;52.068;20.806;2023-12-20T04:29:57;7.00;99.90
35491;DHT22;21605;52.068;20.806;2023-12-20T04:32:23;6.80;99.90
35491;DHT22;21605;52.068;20.806;2023-12-20T04:34:58;6.90;99.90
35491;DHT22;21605;52.068;20.806;2023-12-20T04:37:23;6.80;99.90
35491;DHT22;21605;52.068;20.806;2023-12-20T04:39:49;6.80;99.90
35491;DHT22;21605;52.068;20.806;2023-12-20T04:42:15;6.80;99.90
35491;DHT22;21605;52.068;20.806;2023-12-20T04:44:41;6.90;99.90
35491;DHT22;21605;52.068;20.806;2023-12-20T04:47:06;6.80;99.90
35491;DHT22;21605;52.068;20.806;2023-12-20T04:49:32;6.80;99.90
35491;DHT22;21605;52.068;20.806;2023-12-20T04:51:57;6.80;99.90
35491;DHT22;21605;52.068;20.806;2023-12-20T04:54:23;6.80;99.90
35491;DHT22;21605;52.068;20.806;2023-12-20T04:56:49;6.80;99.90
35491;DHT22;21605;52.068;20.806;2023-12-20T04:59:15;6.80;99.90
35491;DHT22;21605;52.068;20.806;2023-12-20T05:01:40;7.20;99.90
35491;DHT22;21605;52.068;20.806;2023-12-20T05:04:06;6.80;99.90
35491;DHT22;21605;52.068;20.806;2023-12-20T05:06:32;6.80;99.90
35491;DHT22;21605;52.068;20.806;2023-12-20T05:08:57;6.80;99.90
35491;DHT22;21605;52.068;20.806;2023-12-20T05:11:23;7.00;99.90
35491;DHT22;21605;52.068;20.806;2023-12-20T05:13:58;7.70;99.90
35491;DHT22;21605;52.068;20.806;2023-12-20T05:16:23;6.80;99.90
35491;DHT22;21605;52.068;20.806;2023-12-20T05:18:58;6.70;99.90
35491;DHT22;21605;52.068;20.806;2023-12-20T05:21:26;6.80;99.90
35491;DHT22;21605;52.068;20.806;2023-12-20T05:23:53;7.00;99.90
35491;DHT22;21605;52.068;20.806;2023-12-20T05:26:18;6.80;99.90
35491;DHT22;21605;52.068;20.806;2023-12-20T05:28:44;6.80;99.90
35491;DHT22;21605;52.068;20.806;2023-12-20T05:31:09;6.90;99.90
35491;DHT22;21605;52.068;20.806;2023-12-20T05:33:35;6.80;99.90
35491;DHT22;21605;52.068;20.806;2023-12-20T05:36:01;6.80;99.90
35491;DHT22;21605;52.068;20.806;2023-12-20T05:38:26;6.90;99.90
35491;DHT22;21605;52.068;20.806;2023-12-20T05:41:01;6.80;99.90
35491;DHT22;21605;52.068;20.806;2023-12-20T05:43:27;6.80;99.90
35491;DHT22;21605;52.068;20.806;2023-12-20T05:46:01;6.80;99.90
35491;DHT22;21605;52.068;20.806;2023-12-20T05:48:27;6.80;99.90
35491;DHT22;21605;52.068;20.806;2023-12-20T05:50:58;6.80;99.90
35491;DHT22;21605;52.068;20.806;2023-12-20T05:53:23;6.90;99.90
35491;DHT22;21605;52.068;20.806;2023-12-20T05:55:58;6.90;99.90
35491;DHT22;21605;52.068;20.806;2023-12-20T05:58:25;6.80;99.90
35491;DHT22;21605;52.068;20.806;2023-12-20T06:00:50;6.90;99.90
35491;DHT22;21605;52.068;20.806;2023-12-20T06:03:16;6.90;99.90
35491;DHT22;21605;52.068;20.806;2023-12-20T06:05:41;6.90;99.90
35491;DHT22;21605;52.068;20.806;2023-12-20T06:08:07;6.90;99.90
35491;DHT22;21605;52.068;20.806;2023-12-20T06:10:33;6.90;99.90
35491;DHT22;21605;52.068;20.806;2023-12-20T06:12:58;6.80;99.90
35491;DHT22;21605;52.068;20.806;2023-12-20T06:15:26;6.80;99.90
35491;DHT22;21605;52.068;20.806;2023-12-20T06:18:00;6.80;99.90
35491;DHT22;21605;52.068;20.806;2023-12-20T06:20:26;6.80;99.90
35491;DHT22;21605;52.068;20.806;2023-12-20T06:23:01;6.80;99.90
35491;DHT22;21605;52.068;20.806;2023-12-20T06:25:26;6.80;99.90
35491;DHT22;21605;52.068;20.806;2023-12-20T06:28:01;6.80;99.90
35491;DHT22;21605;52.068;20.806;2023-12-20T06:30:27;7.00;99.90
35491;DHT22;21605;52.068;20.806;2023-12-20T06:33:02;6.90;99.90
35491;DHT22;21605;52.068;20.806;2023-12-20T06:35:27;6.80;99.90
35491;DHT22;21605;52.068;20.806;2023-12-20T06:37:59;6.80;99.90
35491;DHT22;21605;52.068;20.806;2023-12-20T06:40:26;6.80;99.90
35491;DHT22;21605;52.068;20.806;2023-12-20T06:42:53;6.80;99.90
35491;DHT22;21605;52.068;20.806;2023-12-20T06:45:19;6.80;99.90
35491;DHT22;21605;52.068;20.806;2023-12-20T06:47:45;6.80;99.90
35491;DHT22;21605;52.068;20.806;2023-12-20T06:50:11;6.80;99.90
35491;DHT22;21605;52.068;20.806;2023-12-20T06:52:36;6.80;99.90
35491;DHT22;21605;52.068;20.806;2023-12-20T06:55:03;6.80;99.90
35491;DHT22;21605;52.068;20.806;2023-12-20T06:57:29;6.80;99.90
35491;DHT22;21605;52.068;20.806;2023-12-20T06:59:58;6.80;99.90
35491;DHT22;21605;52.068;20.806;2023-12-20T07:02:24;6.70;99.90
35491;DHT22;21605;52.068;20.806;2023-12-20T07:04:49;6.80;99.90
35491;DHT22;21605;52.068;20.806;2023-12-20T07:07:15;6.80;99.90
35491;DHT22;21605;52.068;20.806;2023-12-20T07:09:40;6.90;99.90
35491;DHT22;21605;52.068;20.806;2023-12-20T07:12:08;6.80;99.90
35491;DHT22;21605;52.068;20.806;2023-12-20T07:14:34;6.80;99.90
35491;DHT22;21605;52.068;20.806;2023-12-20T07:17:05;6.80;99.90
35491;DHT22;21605;52.068;20.806;2023-12-20T07:19:32;6.90;99.90
35491;DHT22;21605;52.068;20.806;2023-12-20T07:22:00;6.80;99.90
35491;DHT22;21605;52.068;20.806;2023-12-20T07:24:26;6.80;99.90
35491;DHT22;21605;52.068;20.806;2023-12-20T07:26:51;6.80;99.90
35491;DHT22;21605;52.068;20.806;2023-12-20T07:29:17;6.70;99.90
35491;DHT22;21605;52.068;20.806;2023-12-20T07:31:43;6.70;99.90
35491;DHT22;21605;52.068;20.806;2023-12-20T07:34:08;6.80;99.90
35491;DHT22;21605;52.068;20.806;2023-12-20T07:36:34;6.80;99.90
35491;DHT22;21605;52.068;20.806;2023-12-20T07:39:05;6.80;99.90
35491;DHT22;21605;52.068;20.806;2023-12-20T07:41:30;6.80;99.90
35491;DHT22;21605;52.068;20.806;2023-12-20T07:43:56;6.80;99.90
35491;DHT22;21605;52.068;20.806;2023-12-20T07:46:22;6.80;99.90
35491;DHT22;21605;52.068;20.806;2023-12-20T07:48:50;6.80;99.90
35491;DHT22;21605;52.068;20.806;2023-12-20T07:51:16;6.70;99.90
35491;DHT22;21605;52.068;20.806;2023-12-20T07:53:41;6.90;99.90
35491;DHT22;21605;52.068;20.806;2023-12-20T07:56:18;6.80;99.90
35491;DHT22;21605;52.068;20.806;2023-12-20T07:58:44;6.80;99.90
35491;DHT22;21605;52.068;20.806;2023-12-20T08:01:11;6.80;99.90
35491;DHT22;21605;52.068;20.806;2023-12-20T08:03:37;6.80;99.90
35491;DHT22;21605;52.068;20.806;2023-12-20T08:06:03;6.80;99.90
35491;DHT22;21605;52.068;20.806;2023-12-20T08:08:29;6.80;99.90
35491;DHT22;21605;52.068;20.806;2023-12-20T08:10:54;6.80;99.90
35491;DHT22;21605;52.068;20.806;2023-12-20T08:13:20;6.80;99.90
35491;DHT22;21605;52.068;20.806;2023-12-20T08:15:50;6.90;99.90
35491;DHT22;21605;52.068;20.806;2023-12-20T08:18:16;6.80;99.90
35491;DHT22;21605;52.068;20.806;2023-12-20T08:20:41;6.80;99.90
35491;DHT22;21605;52.068;20.806;2023-12-20T08:23:07;6.80;99.90
35491;DHT22;21605;52.068;20.806;2023-12-20T08:25:32;6.80;99.90
35491;DHT22;21605;52.068;20.806;2023-12-20T08:28:03;6.80;99.90
35491;DHT22;21605;52.068;20.806;2023-12-20T08:30:29;6.80;99.90
35491;DHT22;21605;52.068;20.806;2023-12-20T08:33:06;6.90;99.90
35491;DHT22;21605;52.068;20.806;2023-12-20T08:35:36;6.80;99.90
35491;DHT22;21605;52.068;20.806;2023-12-20T08:38:05;6.90;99.90
35491;DHT22;21605;52.068;20.806;2023-12-20T08:40:31;6.90;99.90
35491;DHT22;21605;52.068;20.806;2023-12-20T08:43:05;6.70;99.90
35491;DHT22;21605;52.068;20.806;2023-12-20T08:45:31;6.90;99.90
35491;DHT22;21605;52.068;20.806;2023-12-20T08:48:06;6.90;99.90
35491;DHT22;21605;52.068;20.806;2023-12-20T08:50:32;6.90;99.90
35491;DHT22;21605;52.068;20.806;2023-12-20T08:53:07;7.00;99.90
35491;DHT22;21605;52.068;20.806;2023-12-20T08:55:32;6.80;99.90
35491;DHT22;21605;52.068;20.806;2023-12-20T08:58:07;6.90;99.90
35491;DHT22;21605;52.068;20.806;2023-12-20T09:00:34;6.90;99.90
35491;DHT22;21605;52.068;20.806;2023-12-20T09:03:09;6.90;99.90
35491;DHT22;21605;52.068;20.806;2023-12-20T09:05:34;6.90;99.90
35491;DHT22;21605;52.068;20.806;2023-12-20T09:08:03;7.00;99.90
35491;DHT22;21605;52.068;20.806;2023-12-20T09:10:29;7.00;99.90
35491;DHT22;21605;52.068;20.806;2023-12-20T09:12:55;7.00;99.90
35491;DHT22;21605;52.068;20.806;2023-12-20T09:15:32;7.00;99.90
35491;DHT22;21605;52.068;20.806;2023-12-20T09:18:08;7.10;99.90
35491;DHT22;21605;52.068;20.806;2023-12-20T09:20:34;7.10;99.90
35491;DHT22;21605;52.068;20.806;2023-12-20T09:23:08;6.90;99.90
35491;DHT22;21605;52.068;20.806;2023-12-20T09:25:34;7.00;99.90
35491;DHT22;21605;52.068;20.806;2023-12-20T09:28:09;7.00;99.90
35491;DHT22;21605;52.068;20.806;2023-12-20T09:30:35;6.90;99.90
35491;DHT22;21605;52.068;20.806;2023-12-20T09:33:08;7.00;99.90
35491;DHT22;21605;52.068;20.806;2023-12-20T09:35:34;7.00;99.90
35491;DHT22;21605;52.068;20.806;2023-12-20T09:38:09;7.10;99.90
35491;DHT22;21605;52.068;20.806;2023-12-20T09:40:35;7.10;99.90
35491;DHT22;21605;52.068;20.806;2023-12-20T09:43:15;7.30;99.90
35491;DHT22;21605;52.068;20.806;2023-12-20T09:45:46;7.40;99.90
35491;DHT22;21605;52.068;20.806;2023-12-20T09:48:13;7.20;99.90
35491;DHT22;21605;52.068;20.806;2023-12-20T09:50:40;7.10;99.90
35491;DHT22;21605;52.068;20.806;2023-12-20T09:53:10;7.10;99.90
35491;DHT22;21605;52.068;20.806;2023-12-20T09:55:37;7.10;99.90
35491;DHT22;21605;52.068;20.806;2023-12-20T09:58:09;7.20;99.90
35491;DHT22;21605;52.068;20.806;2023-12-20T10:00:35;7.10;99.90
35491;DHT22;21605;52.068;20.806;2023-12-20T10:03:10;7.00;99.90
35491;DHT22;21605;52.068;20.806;2023-12-20T10:05:39;7.00;99.90
35491;DHT22;21605;52.068;20.806;2023-12-20T10:08:09;7.00;99.90
35491;DHT22;21605;52.068;20.806;2023-12-20T10:10:35;7.00;99.90
35491;DHT22;21605;52.068;20.806;2023-12-20T10:13:12;7.00;99.90
35491;DHT22;21605;52.068;20.806;2023-12-20T10:15:38;7.00;99.90
35491;DHT22;21605;52.068;20.806;2023-12-20T10:18:05;7.00;99.90
35491;DHT22;21605;52.068;20.806;2023-12-20T10:20:31;7.00;99.90
35491;DHT22;21605;52.068;20.806;2023-12-20T10:23:09;7.10;99.90
35491;DHT22;21605;52.068;20.806;2023-12-20T10:25:35;7.00;99.90
35491;DHT22;21605;52.068;20.806;2023-12-20T10:28:14;6.90;99.90
35491;DHT22;21605;52.068;20.806;2023-12-20T10:30:41;7.00;99.90
35491;DHT22;21605;52.068;20.806;2023-12-20T10:33:24;7.00;99.90
35491;DHT22;21605;52.068;20.806;2023-12-20T10:35:51;6.90;99.90
35491;DHT22;21605;52.068;20.806;2023-12-20T10:38:17;9.70;99.90
35491;DHT22;21605;52.068;20.806;2023-12-20T10:40:45;7.00;99.90
35491;DHT22;21605;52.068;20.806;2023-12-20T10:43:11;7.10;99.90
35491;DHT22;21605;52.068;20.806;2023-12-20T10:45:37;7.00;99.90
35491;DHT22;21605;52.068;20.806;2023-12-20T10:48:11;7.00;99.90
35491;DHT22;21605;52.068;20.806;2023-12-20T10:50:38;7.00;99.90
35491;DHT22;21605;52.068;20.806;2023-12-20T10:53:12;7.00;99.90
35491;DHT22;21605;52.068;20.806;2023-12-20T10:55:38;7.00;99.90
35491;DHT22;21605;52.068;20.806;2023-12-20T10:58:10;7.00;99.90
35491;DHT22;21605;52.068;20.806;2023-12-20T11:00:40;7.00;99.90
35491;DHT22;21605;52.068;20.806;2023-12-20T11:03:10;7.00;99.90
35491;DHT22;21605;52.068;20.806;2023-12-20T11:11:44;7.00;99.90
35491;DHT22;21605;52.068;20.806;2023-12-20T11:14:22;7.00;99.90
35491;DHT22;21605;52.068;20.806;2023-12-20T11:16:49;7.00;99.90
35491;DHT22;21605;52.068;20.806;2023-12-20T11:19:16;7.10;99.90
35491;DHT22;21605;52.068;20.806;2023-12-20T11:21:42;7.10;99.90
35491;DHT22;21605;52.068;20.806;2023-12-20T11:24:08;7.20;99.90
35491;DHT22;21605;52.068;20.806;2023-12-20T11:26:35;7.20;99.90
35491;DHT22;21605;52.068;20.806;2023-12-20T11:29:31;7.10;99.90
35491;DHT22;21605;52.068;20.806;2023-12-20T11:32:00;7.10;99.90
35491;DHT22;21605;52.068;20.806;2023-12-20T11:34:31;7.10;99.90
35491;DHT22;21605;52.068;20.806;2023-12-20T11:36:59;7.20;99.90
35491;DHT22;21605;52.068;20.806;2023-12-20T11:39:26;7.30;99.90
35491;DHT22;21605;52.068;20.806;2023-12-20T11:41:55;7.20;99.90
35491;DHT22;21605;52.068;20.806;2023-12-20T11:44:21;7.10;99.90
35491;DHT22;21605;52.068;20.806;2023-12-20T11:46:47;7.20;99.90
35491;DHT22;21605;52.068;20.806;2023-12-20T11:49:23;7.10;99.90
35491;DHT22;21605;52.068;20.806;2023-12-20T11:51:49;7.00;99.90
35491;DHT22;21605;52.068;20.806;2023-12-20T11:54:18;7.00;99.90
35491;DHT22;21605;52.068;20.806;2023-12-20T11:56:44;7.10;99.90
35491;DHT22;21605;52.068;20.806;2023-12-20T11:59:18;7.10;99.90
35491;DHT22;21605;52.068;20.806;2023-12-20T12:01:48;7.00;99.90
35491;DHT22;21605;52.068;20.806;2023-12-20T12:04:15;7.00;99.90
35491;DHT22;21605;52.068;20.806;2023-12-20T12:06:43;7.00;99.90
35491;DHT22;21605;52.068;20.806;2023-12-20T12:09:14;7.10;99.90
35491;DHT22;21605;52.068;20.806;2023-12-20T12:11:40;7.00;99.90
35491;DHT22;21605;52.068;20.806;2023-12-20T12:14:15;6.90;99.90
35491;DHT22;21605;52.068;20.806;2023-12-20T12:16:43;7.10;99.90
35491;DHT22;21605;52.068;20.806;2023-12-20T12:19:29;7.00;99.90
35491;DHT22;21605;52.068;20.806;2023-12-20T12:22:12;6.80;99.90
35491;DHT22;21605;52.068;20.806;2023-12-20T12:24:43;6.70;99.90
35491;DHT22;21605;52.068;20.806;2023-12-20T12:27:17;6.90;99.90
35491;DHT22;21605;52.068;20.806;2023-12-20T12:30:01;6.90;99.90
35491;DHT22;21605;52.068;20.806;2023-12-20T12:32:28;6.90;99.90
35491;DHT22;21605;52.068;20.806;2023-12-20T12:34:53;6.80;99.90
35491;DHT22;21605;52.068;20.806;2023-12-20T12:37:19;6.80;99.90
35491;DHT22;21605;52.068;20.806;2023-12-20T12:39:46;6.70;99.90
35491;DHT22;21605;52.068;20.806;2023-12-20T12:42:21;6.70;99.90
35491;DHT22;21605;52.068;20.806;2023-12-20T12:44:51;6.70;99.90
35491;DHT22;21605;52.068;20.806;2023-12-20T12:47:19;6.70;99.90
35491;DHT22;21605;52.068;20.806;2023-12-20T12:49:45;6.70;99.90
35491;DHT22;21605;52.068;20.806;2023-12-20T12:52:16;6.60;99.90
35491;DHT22;21605;52.068;20.806;2023-12-20T12:54:42;6.60;99.90
35491;DHT22;21605;52.068;20.806;2023-12-20T12:57:19;6.60;99.90
35491;DHT22;21605;52.068;20.806;2023-12-20T12:59:45;6.60;99.90
35491;DHT22;21605;52.068;20.806;2023-12-20T13:02:20;6.60;99.90
35491;DHT22;21605;52.068;20.806;2023-12-20T13:04:46;6.50;99.90
35491;DHT22;21605;52.068;20.806;2023-12-20T13:07:12;6.50;99.90
35491;DHT22;21605;52.068;20.806;2023-12-20T13:09:38;6.40;99.90
35491;DHT22;21605;52.068;20.806;2023-12-20T13:12:05;6.50;99.90
35491;DHT22;21605;52.068;20.806;2023-12-20T13:14:33;6.40;99.90
35491;DHT22;21605;52.068;20.806;2023-12-20T13:17:00;6.50;99.90
35491;DHT22;21605;52.068;20.806;2023-12-20T13:19:28;6.50;99.90
35491;DHT22;21605;52.068;20.806;2023-12-20T13:21:55;6.50;99.90
35491;DHT22;21605;52.068;20.806;2023-12-20T13:24:21;6.50;99.90
35491;DHT22;21605;52.068;20.806;2023-12-20T13:26:46;6.40;99.90
35491;DHT22;21605;52.068;20.806;2023-12-20T13:29:17;6.40;99.90
35491;DHT22;21605;52.068;20.806;2023-12-20T13:31:43;6.40;99.90
35491;DHT22;21605;52.068;20.806;2023-12-20T13:34:09;6.40;99.90
35491;DHT22;21605;52.068;20.806;2023-12-20T13:36:50;6.40;99.90
35491;DHT22;21605;52.068;20.806;2023-12-20T13:39:25;6.40;99.90
35491;DHT22;21605;52.068;20.806;2023-12-20T13:41:51;6.50;99.90
35491;DHT22;21605;52.068;20.806;2023-12-20T13:44:19;6.50;99.90
35491;DHT22;21605;52.068;20.806;2023-12-20T13:46:45;6.60;99.90
35491;DHT22;21605;52.068;20.806;2023-12-20T13:49:21;6.40;99.90
35491;DHT22;21605;52.068;20.806;2023-12-20T13:51:50;6.40;99.90
35491;DHT22;21605;52.068;20.806;2023-12-20T13:54:21;6.50;99.90
35491;DHT22;21605;52.068;20.806;2023-12-20T13:56:47;6.40;99.90
35491;DHT22;21605;52.068;20.806;2023-12-20T13:59:22;6.40;99.90
35491;DHT22;21605;52.068;20.806;2023-12-20T14:01:48;6.40;99.90
35491;DHT22;21605;52.068;20.806;2023-12-20T14:04:15;6.40;99.90
35491;DHT22;21605;52.068;20.806;2023-12-20T14:06:41;6.30;99.90
35491;DHT22;21605;52.068;20.806;2023-12-20T14:09:07;6.30;99.90
35491;DHT22;21605;52.068;20.806;2023-12-20T14:11:33;6.30;99.90
35491;DHT22;21605;52.068;20.806;2023-12-20T14:13:59;6.20;99.90
35491;DHT22;21605;52.068;20.806;2023-12-20T14:16:24;6.20;99.90
35491;DHT22;21605;52.068;20.806;2023-12-20T14:18:50;6.30;99.90
35491;DHT22;21605;52.068;20.806;2023-12-20T14:21:17;6.20;99.90
35491;DHT22;21605;52.068;20.806;2023-12-20T14:23:43;6.20;99.90
35491;DHT22;21605;52.068;20.806;2023-12-20T14:26:09;6.30;99.90
35491;DHT22;21605;52.068;20.806;2023-12-20T14:28:47;6.20;99.90
35491;DHT22;21605;52.068;20.806;2023-12-20T14:31:21;6.20;99.90
35491;DHT22;21605;52.068;20.806;2023-12-20T14:33:49;6.10;99.90
35491;DHT22;21605;52.068;20.806;2023-12-20T14:36:21;6.20;99.90
35491;DHT22;21605;52.068;20.806;2023-12-20T14:38:47;6.10;99.90
35491;DHT22;21605;52.068;20.806;2023-12-20T14:41:23;6.20;99.90
35491;DHT22;21605;52.068;20.806;2023-12-20T14:43:50;7.00;99.90
35491;DHT22;21605;52.068;20.806;2023-12-20T14:46:22;6.10;99.90
35491;DHT22;21605;52.068;20.806;2023-12-20T14:48:48;6.10;99.90
35491;DHT22;21605;52.068;20.806;2023-12-20T14:51:23;6.10;99.90
35491;DHT22;21605;52.068;20.806;2023-12-20T14:53:50;6.10;99.90
35491;DHT22;21605;52.068;20.806;2023-12-20T14:56:24;6.00;99.90
35491;DHT22;21605;52.068;20.806;2023-12-20T14:58:51;5.90;99.90
35491;DHT22;21605;52.068;20.806;2023-12-20T15:01:22;6.00;99.90
35491;DHT22;21605;52.068;20.806;2023-12-20T15:03:49;6.10;99.90
35491;DHT22;21605;52.068;20.806;2023-12-20T15:06:23;6.10;99.90
35491;DHT22;21605;52.068;20.806;2023-12-20T15:08:51;6.20;99.90
35491;DHT22;21605;52.068;20.806;2023-12-20T15:11:22;6.30;99.90
35491;DHT22;21605;52.068;20.806;2023-12-20T15:13:48;6.10;99.90
35491;DHT22;21605;52.068;20.806;2023-12-20T15:16:23;6.00;99.90
35491;DHT22;21605;52.068;20.806;2023-12-20T15:18:49;6.00;99.90
35491;DHT22;21605;52.068;20.806;2023-12-20T15:21:24;5.90;99.90
35491;DHT22;21605;52.068;20.806;2023-12-20T15:23:57;6.00;99.90
35491;DHT22;21605;52.068;20.806;2023-12-20T15:26:34;6.00;99.90
35491;DHT22;21605;52.068;20.806;2023-12-20T15:29:00;6.00;99.90
35491;DHT22;21605;52.068;20.806;2023-12-20T15:31:27;6.00;99.90
35491;DHT22;21605;52.068;20.806;2023-12-20T15:33:53;6.00;99.90
35491;DHT22;21605;52.068;20.806;2023-12-20T15:36:19;6.00;99.90
35491;DHT22;21605;52.068;20.806;2023-12-20T15:38:45;6.00;99.90
35491;DHT22;21605;52.068;20.806;2023-12-20T15:41:19;6.10;99.90
35491;DHT22;21605;52.068;20.806;2023-12-20T15:43:45;5.90;99.90